sensor_id;sensor_type;location;lat;lon;timestamp;pressure;altitude;pressure_sealevel;temperature;humidity
53858;BME280;39763;51.188;6.690;2022-08-21T00:00:26;101365.59;;;23.45;55.38
53858;BME280;39763;51.188;6.690;2022-08-21T00:01:58;101361.00;;;23.47;55.21
53858;BME280;39763;51.188;6.690;2022-08-21T00:03:30;101362.59;;;23.50;55.19
53858;BME280;39763;51.188;6.690;2022-08-21T00:05:04;101358.50;;;23.57;55.20
53858;BME280;39763;51.188;6.690;2022-08-21T00:06:36;101362.75;;;23.60;54.79
53858;BME280;39763;51.188;6.690;2022-08-21T00:08:08;101367.13;;;23.61;54.74
53858;BME280;39763;51.188;6.690;2022-08-21T00:09:40;101359.72;;;23.64;54.60
53858;BME280;39763;51.188;6.690;2022-08-21T00:11:12;101363.03;;;23.68;54.72
53858;BME280;39763;51.188;6.690;2022-08-21T00:12:45;101354.75;;;23.71;54.78
53858;BME280;39763;51.188;6.690;2022-08-21T00:14:17;101349.00;;;23.75;54.51
53858;BME280;39763;51.188;6.690;2022-08-21T00:15:49;101354.00;;;23.80;54.51
53858;BME280;39763;51.188;6.690;2022-08-21T00:17:21;101349.25;;;23.83;54.10
53858;BME280;39763;51.188;6.690;2022-08-21T00:18:53;101353.53;;;23.86;54.25
53858;BME280;39763;51.188;6.690;2022-08-21T00:20:27;101348.19;;;23.86;54.04
53858;BME280;39763;51.188;6.690;2022-08-21T00:21:59;101345.25;;;23.89;54.37
53858;BME280;39763;51.188;6.690;2022-08-21T00:23:33;101342.56;;;23.89;53.77
53858;BME280;39763;51.188;6.690;2022-08-21T00:25:06;101344.75;;;23.84;53.67
53858;BME280;39763;51.188;6.690;2022-08-21T00:26:38;101335.13;;;23.81;54.23
53858;BME280;39763;51.188;6.690;2022-08-21T00:28:10;101335.13;;;23.81;54.34
53858;BME280;39763;51.188;6.690;2022-08-21T00:29:42;101331.56;;;23.81;53.87
53858;BME280;39763;51.188;6.690;2022-08-21T00:31:15;101327.19;;;23.80;53.70
53858;BME280;39763;51.188;6.690;2022-08-21T00:32:47;101334.38;;;23.79;54.02
53858;BME280;39763;51.188;6.690;2022-08-21T00:34:19;101330.22;;;23.75;53.75
53858;BME280;39763;51.188;6.690;2022-08-21T00:35:52;101337.19;;;23.67;53.64
53858;BME280;39763;51.188;6.690;2022-08-21T00:37:24;101339.72;;;23.57;53.94
53858;BME280;39763;51.188;6.690;2022-08-21T00:38:56;101335.78;;;23.50;54.59
53858;BME280;39763;51.188;6.690;2022-08-21T00:40:32;101335.41;;;23.43;54.84
53858;BME280;39763;51.188;6.690;2022-08-21T00:42:04;101335.13;;;23.35;54.54
53858;BME280;39763;51.188;6.690;2022-08-21T00:43:37;101334.63;;;23.30;54.66
53858;BME280;39763;51.188;6.690;2022-08-21T00:45:10;101333.06;;;23.28;55.03
53858;BME280;39763;51.188;6.690;2022-08-21T00:46:43;101336.59;;;23.28;55.19
53858;BME280;39763;51.188;6.690;2022-08-21T00:48:15;101333.91;;;23.28;55.19
53858;BME280;39763;51.188;6.690;2022-08-21T00:49:47;101333.16;;;23.26;55.19
53858;BME280;39763;51.188;6.690;2022-08-21T00:51:24;101335.34;;;23.21;55.07
53858;BME280;39763;51.188;6.690;2022-08-21T00:52:57;101331.28;;;23.15;55.29
53858;BME280;39763;51.188;6.690;2022-08-21T00:54:33;101329.72;;;23.13;55.50
53858;BME280;39763;51.188;6.690;2022-08-21T00:56:07;101321.06;;;23.09;55.41
53858;BME280;39763;51.188;6.690;2022-08-21T00:57:44;101328.56;;;23.04;55.54
53858;BME280;39763;51.188;6.690;2022-08-21T00:59:21;101326.28;;;23.00;55.72
53858;BME280;39763;51.188;6.690;2022-08-21T01:00:54;101325.53;;;22.98;55.75
53858;BME280;39763;51.188;6.690;2022-08-21T01:02:26;101318.47;;;22.97;55.57
53858;BME280;39763;51.188;6.690;2022-08-21T01:03:59;101321.47;;;22.92;55.64
53858;BME280;39763;51.188;6.690;2022-08-21T01:05:30;101327.06;;;22.89;56.15
53858;BME280;39763;51.188;6.690;2022-08-21T01:07:04;101325.00;;;22.93;56.42
53858;BME280;39763;51.188;6.690;2022-08-21T01:08:36;101323.81;;;22.97;56.34
53858;BME280;39763;51.188;6.690;2022-08-21T01:10:17;101329.66;;;23.02;56.38
53858;BME280;39763;51.188;6.690;2022-08-21T01:11:55;101327.72;;;23.04;56.26
53858;BME280;39763;51.188;6.690;2022-08-21T01:13:29;101322.38;;;23.04;55.83
53858;BME280;39763;51.188;6.690;2022-08-21T01:15:04;101327.84;;;23.02;55.70
53858;BME280;39763;51.188;6.690;2022-08-21T01:16:36;101325.75;;;22.95;55.43
53858;BME280;39763;51.188;6.690;2022-08-21T01:18:11;101320.84;;;22.89;55.86
53858;BME280;39763;51.188;6.690;2022-08-21T01:19:43;101329.97;;;22.86;55.99
53858;BME280;39763;51.188;6.690;2022-08-21T01:21:18;101327.41;;;22.84;55.95
53858;BME280;39763;51.188;6.690;2022-08-21T01:22:50;101323.25;;;22.80;55.85
53858;BME280;39763;51.188;6.690;2022-08-21T01:24:22;101327.13;;;22.76;55.82
53858;BME280;39763;51.188;6.690;2022-08-21T01:25:54;101338.13;;;22.72;56.05
53858;BME280;39763;51.188;6.690;2022-08-21T01:27:25;101330.47;;;22.67;55.87
53858;BME280;39763;51.188;6.690;2022-08-21T01:29:02;101338.50;;;22.67;56.59
53858;BME280;39763;51.188;6.690;2022-08-21T01:30:37;101330.47;;;22.67;56.73
53858;BME280;39763;51.188;6.690;2022-08-21T01:32:16;101334.00;;;22.68;56.58
53858;BME280;39763;51.188;6.690;2022-08-21T01:33:48;101335.81;;;22.67;56.71
53858;BME280;39763;51.188;6.690;2022-08-21T01:35:20;101329.13;;;22.73;57.02
53858;BME280;39763;51.188;6.690;2022-08-21T01:36:54;101332.38;;;22.78;56.82
53858;BME280;39763;51.188;6.690;2022-08-21T01:38:25;101343.06;;;22.78;56.05
53858;BME280;39763;51.188;6.690;2022-08-21T01:39:59;101341.19;;;22.67;55.83
53858;BME280;39763;51.188;6.690;2022-08-21T01:41:31;101335.88;;;22.55;56.02
53858;BME280;39763;51.188;6.690;2022-08-21T01:43:03;101339.00;;;22.48;56.65
53858;BME280;39763;51.188;6.690;2022-08-21T01:44:35;101338.03;;;22.49;57.00
53858;BME280;39763;51.188;6.690;2022-08-21T01:46:07;101335.25;;;22.51;57.05
53858;BME280;39763;51.188;6.690;2022-08-21T01:47:39;101329.66;;;22.54;57.19
53858;BME280;39763;51.188;6.690;2022-08-21T01:49:11;101334.56;;;22.60;57.00
53858;BME280;39763;51.188;6.690;2022-08-21T01:50:43;101333.38;;;22.64;56.94
53858;BME280;39763;51.188;6.690;2022-08-21T01:52:17;101328.53;;;22.69;57.03
53858;BME280;39763;51.188;6.690;2022-08-21T01:53:49;101329.50;;;22.68;56.35
53858;BME280;39763;51.188;6.690;2022-08-21T01:55:21;101325.84;;;22.69;56.68
53858;BME280;39763;51.188;6.690;2022-08-21T01:56:54;101328.38;;;22.71;56.89
53858;BME280;39763;51.188;6.690;2022-08-21T01:58:26;101329.50;;;22.68;56.46
53858;BME280;39763;51.188;6.690;2022-08-21T01:59:58;101326.81;;;22.68;57.02
53858;BME280;39763;51.188;6.690;2022-08-21T02:01:30;101324.03;;;22.70;56.86
53858;BME280;39763;51.188;6.690;2022-08-21T02:03:02;101330.72;;;22.75;56.80
53858;BME280;39763;51.188;6.690;2022-08-21T02:04:34;101335.03;;;22.78;56.85
53858;BME280;39763;51.188;6.690;2022-08-21T02:06:06;101330.31;;;22.81;56.49
53858;BME280;39763;51.188;6.690;2022-08-21T02:07:42;101331.06;;;22.83;56.33
53858;BME280;39763;51.188;6.690;2022-08-21T02:09:15;101322.06;;;22.84;56.40
53858;BME280;39763;51.188;6.690;2022-08-21T02:10:47;101325.44;;;22.86;56.44
53858;BME280;39763;51.188;6.690;2022-08-21T02:12:19;101331.56;;;22.89;56.19
53858;BME280;39763;51.188;6.690;2022-08-21T02:13:52;101325.22;;;22.90;56.01
53858;BME280;39763;51.188;6.690;2022-08-21T02:15:23;101321.06;;;22.85;56.11
53858;BME280;39763;51.188;6.690;2022-08-21T02:16:55;101322.91;;;22.85;56.13
53858;BME280;39763;51.188;6.690;2022-08-21T02:18:39;101324.00;;;22.82;56.17
53858;BME280;39763;51.188;6.690;2022-08-21T02:20:16;101322.06;;;22.84;55.98
53858;BME280;39763;51.188;6.690;2022-08-21T02:21:48;101321.06;;;22.85;56.27
53858;BME280;39763;51.188;6.690;2022-08-21T02:23:21;101318.38;;;22.85;56.06
53858;BME280;39763;51.188;6.690;2022-08-21T02:24:57;101319.25;;;22.86;55.83
53858;BME280;39763;51.188;6.690;2022-08-21T02:26:29;101328.13;;;22.86;56.12
53858;BME280;39763;51.188;6.690;2022-08-21T02:28:04;101325.72;;;22.83;55.56
53858;BME280;39763;51.188;6.690;2022-08-21T02:29:36;101331.50;;;22.77;55.11
53858;BME280;39763;51.188;6.690;2022-08-21T02:31:09;101324.88;;;22.70;55.40
53858;BME280;39763;51.188;6.690;2022-08-21T02:32:41;101323.63;;;22.63;55.74
53858;BME280;39763;51.188;6.690;2022-08-21T02:34:13;101322.13;;;22.59;56.12
53858;BME280;39763;51.188;6.690;2022-08-21T02:35:46;101320.13;;;22.50;56.28
53858;BME280;39763;51.188;6.690;2022-08-21T02:37:19;101317.16;;;22.42;55.94
53858;BME280;39763;51.188;6.690;2022-08-21T02:38:53;101324.78;;;22.35;56.36
53858;BME280;39763;51.188;6.690;2022-08-21T02:40:28;101312.72;;;22.30;56.72
53858;BME280;39763;51.188;6.690;2022-08-21T02:42:00;101323.41;;;22.30;56.87
53858;BME280;39763;51.188;6.690;2022-08-21T02:43:31;101317.41;;;22.26;56.77
53858;BME280;39763;51.188;6.690;2022-08-21T02:45:04;101317.78;;;22.22;56.28
53858;BME280;39763;51.188;6.690;2022-08-21T02:46:36;101321.84;;;22.14;56.71
53858;BME280;39763;51.188;6.690;2022-08-21T02:48:11;101321.34;;;22.09;57.13
53858;BME280;39763;51.188;6.690;2022-08-21T02:49:43;101313.63;;;22.05;57.08
53858;BME280;39763;51.188;6.690;2022-08-21T02:51:18;101311.28;;;22.00;57.32
53858;BME280;39763;51.188;6.690;2022-08-21T02:52:51;101318.22;;;21.90;57.07
53858;BME280;39763;51.188;6.690;2022-08-21T02:54:27;101315.00;;;21.85;57.92
53858;BME280;39763;51.188;6.690;2022-08-21T02:56:00;101310.53;;;21.86;58.14
53858;BME280;39763;51.188;6.690;2022-08-21T02:57:32;101315.00;;;21.85;57.95
53858;BME280;39763;51.188;6.690;2022-08-21T02:59:04;101317.59;;;21.87;57.86
53858;BME280;39763;51.188;6.690;2022-08-21T03:00:37;101312.13;;;21.88;58.15
53858;BME280;39763;51.188;6.690;2022-08-21T03:02:08;101310.53;;;21.86;57.88
53858;BME280;39763;51.188;6.690;2022-08-21T03:03:44;101319.19;;;21.89;58.11
53858;BME280;39763;51.188;6.690;2022-08-21T03:05:17;101312.13;;;21.88;57.59
53858;BME280;39763;51.188;6.690;2022-08-21T03:06:49;101317.38;;;21.90;57.79
53858;BME280;39763;51.188;6.690;2022-08-21T03:08:22;101314.59;;;21.91;57.79
53858;BME280;39763;51.188;6.690;2022-08-21T03:10:00;101311.47;;;21.97;57.92
53858;BME280;39763;51.188;6.690;2022-08-21T03:11:31;101313.00;;;22.01;58.02
53858;BME280;39763;51.188;6.690;2022-08-21T03:13:03;101309.03;;;22.07;58.01
53858;BME280;39763;51.188;6.690;2022-08-21T03:14:35;101321.00;;;22.14;57.74
53858;BME280;39763;51.188;6.690;2022-08-21T03:16:07;101305.56;;;22.17;57.66
53858;BME280;39763;51.188;6.690;2022-08-21T03:17:41;101305.16;;;22.24;57.55
53858;BME280;39763;51.188;6.690;2022-08-21T03:19:13;101296.75;;;22.28;57.51
53858;BME280;39763;51.188;6.690;2022-08-21T03:20:45;101305.22;;;22.35;57.32
53858;BME280;39763;51.188;6.690;2022-08-21T03:22:17;101301.56;;;22.36;57.06
53858;BME280;39763;51.188;6.690;2022-08-21T03:23:49;101302.31;;;22.38;57.09
53858;BME280;39763;51.188;6.690;2022-08-21T03:25:23;101298.56;;;22.40;56.77
53858;BME280;39763;51.188;6.690;2022-08-21T03:27:11;101305.47;;;22.43;56.71
53858;BME280;39763;51.188;6.690;2022-08-21T03:28:46;101297.13;;;22.47;56.70
53858;BME280;39763;51.188;6.690;2022-08-21T03:30:20;101303.22;;;22.49;56.66
53858;BME280;39763;51.188;6.690;2022-08-21T03:31:52;101309.31;;;22.51;56.65
53858;BME280;39763;51.188;6.690;2022-08-21T03:33:25;101306.28;;;22.56;56.54
53858;BME280;39763;51.188;6.690;2022-08-21T03:34:59;101303.59;;;22.56;56.49
53858;BME280;39763;51.188;6.690;2022-08-21T03:36:31;101308.75;;;22.59;56.38
53858;BME280;39763;51.188;6.690;2022-08-21T03:38:03;101307.78;;;22.60;56.03
53858;BME280;39763;51.188;6.690;2022-08-21T03:39:35;101309.59;;;22.60;55.96
53858;BME280;39763;51.188;6.690;2022-08-21T03:41:08;101308.75;;;22.59;55.96
53858;BME280;39763;51.188;6.690;2022-08-21T03:42:40;101303.59;;;22.56;55.99
53858;BME280;39763;51.188;6.690;2022-08-21T03:44:12;101298.50;;;22.53;55.97
53858;BME280;39763;51.188;6.690;2022-08-21T03:45:44;101310.06;;;22.54;56.03
53858;BME280;39763;51.188;6.690;2022-08-21T03:47:16;101302.25;;;22.50;55.64
53858;BME280;39763;51.188;6.690;2022-08-21T03:48:48;101310.41;;;22.49;55.81
53858;BME280;39763;51.188;6.690;2022-08-21T03:50:20;101308.06;;;22.44;55.15
53858;BME280;39763;51.188;6.690;2022-08-21T03:51:52;101314.19;;;22.34;54.91
53858;BME280;39763;51.188;6.690;2022-08-21T03:53:30;101320.00;;;22.28;55.71
53858;BME280;39763;51.188;6.690;2022-08-21T03:55:02;101329.66;;;22.17;55.17
53858;BME280;39763;51.188;6.690;2022-08-21T03:56:35;101319.84;;;22.05;55.52
53858;BME280;39763;51.188;6.690;2022-08-21T03:58:07;101321.97;;;22.00;55.84
53858;BME280;39763;51.188;6.690;2022-08-21T03:59:47;101321.97;;;21.88;55.91
53858;BME280;39763;51.188;6.690;2022-08-21T04:01:19;101329.34;;;21.84;56.23
53858;BME280;39763;51.188;6.690;2022-08-21T04:02:51;101321.31;;;21.84;56.56
53858;BME280;39763;51.188;6.690;2022-08-21T04:04:23;101330.84;;;21.88;57.04
53858;BME280;39763;51.188;6.690;2022-08-21T04:05:55;101327.84;;;21.93;57.06
53858;BME280;39763;51.188;6.690;2022-08-21T04:07:27;101328.19;;;22.01;57.16
53858;BME280;39763;51.188;6.690;2022-08-21T04:08:59;101335.78;;;22.07;57.21
53858;BME280;39763;51.188;6.690;2022-08-21T04:10:33;101332.75;;;22.11;56.62
53858;BME280;39763;51.188;6.690;2022-08-21T04:12:07;101339.72;;;22.14;56.78
53858;BME280;39763;51.188;6.690;2022-08-21T04:13:40;101342.28;;;22.15;56.59
53858;BME280;39763;51.188;6.690;2022-08-21T04:15:15;101340.25;;;22.19;56.61
53858;BME280;39763;51.188;6.690;2022-08-21T04:16:47;101341.84;;;22.22;56.54
53858;BME280;39763;51.188;6.690;2022-08-21T04:18:18;101334.47;;;22.25;56.54
53858;BME280;39763;51.188;6.690;2022-08-21T04:19:50;101333.38;;;22.28;56.46
53858;BME280;39763;51.188;6.690;2022-08-21T04:21:24;101335.81;;;22.31;56.42
53858;BME280;39763;51.188;6.690;2022-08-21T04:22:56;101332.06;;;22.33;56.46
53858;BME280;39763;51.188;6.690;2022-08-21T04:24:28;101333.69;;;22.36;55.80
53858;BME280;39763;51.188;6.690;2022-08-21T04:26:00;101341.72;;;22.36;56.07
53858;BME280;39763;51.188;6.690;2022-08-21T04:27:33;101327.78;;;22.31;55.68
53858;BME280;39763;51.188;6.690;2022-08-21T04:29:05;101329.72;;;22.29;55.82
53858;BME280;39763;51.188;6.690;2022-08-21T04:30:41;101335.81;;;22.31;55.91
53858;BME280;39763;51.188;6.690;2022-08-21T04:32:12;101336.91;;;22.28;56.02
53858;BME280;39763;51.188;6.690;2022-08-21T04:33:44;101336.56;;;22.33;56.10
53858;BME280;39763;51.188;6.690;2022-08-21T04:35:18;101336.47;;;22.34;55.95
53858;BME280;39763;51.188;6.690;2022-08-21T04:36:50;101337.22;;;22.36;56.07
53858;BME280;39763;51.188;6.690;2022-08-21T04:38:22;101330.03;;;22.37;55.74
53858;BME280;39763;51.188;6.690;2022-08-21T04:39:54;101337.66;;;22.30;55.42
53858;BME280;39763;51.188;6.690;2022-08-21T04:41:29;101341.41;;;22.28;55.77
53858;BME280;39763;51.188;6.690;2022-08-21T04:43:04;101332.41;;;22.29;55.56
53858;BME280;39763;51.188;6.690;2022-08-21T04:44:36;101336.78;;;22.30;55.83
53858;BME280;39763;51.188;6.690;2022-08-21T04:46:07;101336.78;;;22.30;55.60
53858;BME280;39763;51.188;6.690;2022-08-21T04:47:44;101335.44;;;22.24;55.21
53858;BME280;39763;51.188;6.690;2022-08-21T04:49:23;101344.53;;;22.22;55.63
53858;BME280;39763;51.188;6.690;2022-08-21T04:50:57;101343.03;;;22.17;54.87
53858;BME280;39763;51.188;6.690;2022-08-21T04:52:32;101349.16;;;22.07;55.00
53858;BME280;39763;51.188;6.690;2022-08-21T04:54:09;101350.34;;;22.03;55.61
53858;BME280;39763;51.188;6.690;2022-08-21T04:55:43;101347.56;;;22.04;55.93
53858;BME280;39763;51.188;6.690;2022-08-21T04:57:15;101345.63;;;22.06;55.91
53858;BME280;39763;51.188;6.690;2022-08-21T04:58:50;101348.00;;;22.11;56.25
53858;BME280;39763;51.188;6.690;2022-08-21T05:00:24;101347.63;;;22.15;56.06
53858;BME280;39763;51.188;6.690;2022-08-21T05:01:56;101343.47;;;22.11;55.25
53858;BME280;39763;51.188;6.690;2022-08-21T05:03:29;101345.31;;;22.11;55.79
53858;BME280;39763;51.188;6.690;2022-08-21T05:05:03;101347.00;;;22.12;56.17
53858;BME280;39763;51.188;6.690;2022-08-21T05:06:36;101343.88;;;22.18;55.96
53858;BME280;39763;51.188;6.690;2022-08-21T05:08:11;101343.56;;;22.23;55.83
53858;BME280;39763;51.188;6.690;2022-08-21T05:09:44;101340.53;;;22.27;55.91
53858;BME280;39763;51.188;6.690;2022-08-21T05:11:16;101348.25;;;22.32;55.58
53858;BME280;39763;51.188;6.690;2022-08-21T05:12:48;101339.34;;;22.31;55.30
53858;BME280;39763;51.188;6.690;2022-08-21T05:14:21;101347.22;;;22.22;54.92
53858;BME280;39763;51.188;6.690;2022-08-21T05:15:53;101341.97;;;22.20;55.42
53858;BME280;39763;51.188;6.690;2022-08-21T05:17:25;101352.44;;;22.23;55.77
53858;BME280;39763;51.188;6.690;2022-08-21T05:18:56;101353.19;;;22.25;55.64
53858;BME280;39763;51.188;6.690;2022-08-21T05:20:28;101348.47;;;22.29;55.47
53858;BME280;39763;51.188;6.690;2022-08-21T05:22:00;101361.41;;;22.35;55.48
53858;BME280;39763;51.188;6.690;2022-08-21T05:23:32;101359.38;;;22.38;55.15
53858;BME280;39763;51.188;6.690;2022-08-21T05:25:05;101352.81;;;22.42;54.98
53858;BME280;39763;51.188;6.690;2022-08-21T05:26:41;101357.31;;;22.42;54.72
53858;BME280;39763;51.188;6.690;2022-08-21T05:28:17;101361.59;;;22.44;54.56
53858;BME280;39763;51.188;6.690;2022-08-21T05:29:51;101366.09;;;22.44;54.34
53858;BME280;39763;51.188;6.690;2022-08-21T05:31:23;101368.00;;;22.42;54.55
53858;BME280;39763;51.188;6.690;2022-08-21T05:32:56;101362.66;;;22.42;54.47
53858;BME280;39763;51.188;6.690;2022-08-21T05:34:28;101367.03;;;22.43;54.88
53858;BME280;39763;51.188;6.690;2022-08-21T05:36:00;101365.66;;;22.50;54.58
53858;BME280;39763;51.188;6.690;2022-08-21T05:37:32;101362.88;;;22.51;54.33
53858;BME280;39763;51.188;6.690;2022-08-21T05:39:04;101371.66;;;22.54;54.46
53858;BME280;39763;51.188;6.690;2022-08-21T05:40:36;101364.34;;;22.56;54.31
53858;BME280;39763;51.188;6.690;2022-08-21T05:42:08;101366.78;;;22.59;54.28
53858;BME280;39763;51.188;6.690;2022-08-21T05:43:40;101364.09;;;22.59;53.87
53858;BME280;39763;51.188;6.690;2022-08-21T05:45:13;101361.31;;;22.60;54.04
53858;BME280;39763;51.188;6.690;2022-08-21T05:46:44;101361.09;;;22.63;53.98
53858;BME280;39763;51.188;6.690;2022-08-21T05:48:19;101360.78;;;22.68;53.92
53858;BME280;39763;51.188;6.690;2022-08-21T05:49:51;101360.66;;;22.69;53.76
53858;BME280;39763;51.188;6.690;2022-08-21T05:51:23;101357.63;;;22.74;53.89
53858;BME280;39763;51.188;6.690;2022-08-21T05:52:54;101360.88;;;22.79;53.78
53858;BME280;39763;51.188;6.690;2022-08-21T05:54:37;101365.03;;;22.83;53.49
53858;BME280;39763;51.188;6.690;2022-08-21T05:56:10;101359.31;;;22.88;53.20
53858;BME280;39763;51.188;6.690;2022-08-21T05:57:42;101357.38;;;22.90;53.26
53858;BME280;39763;51.188;6.690;2022-08-21T05:59:14;101356.94;;;22.96;53.45
53858;BME280;39763;51.188;6.690;2022-08-21T06:00:48;101370.09;;;22.99;53.17
53858;BME280;39763;51.188;6.690;2022-08-21T06:02:20;101355.59;;;23.01;53.05
53858;BME280;39763;51.188;6.690;2022-08-21T06:03:52;101356.44;;;23.02;53.01
53858;BME280;39763;51.188;6.690;2022-08-21T06:05:27;101359.75;;;23.05;52.92
53858;BME280;39763;51.188;6.690;2022-08-21T06:07:07;101354.06;;;23.10;52.63
53858;BME280;39763;51.188;6.690;2022-08-21T06:08:39;101354.81;;;23.12;52.81
53858;BME280;39763;51.188;6.690;2022-08-21T06:10:11;101361.63;;;23.16;52.46
53858;BME280;39763;51.188;6.690;2022-08-21T06:11:43;101353.47;;;23.17;52.38
53858;BME280;39763;51.188;6.690;2022-08-21T06:13:16;101346.06;;;23.21;52.44
53858;BME280;39763;51.188;6.690;2022-08-21T06:14:48;101351.06;;;23.26;52.34
53858;BME280;39763;51.188;6.690;2022-08-21T06:16:23;101356.31;;;23.27;52.17
53858;BME280;39763;51.188;6.690;2022-08-21T06:17:55;101357.19;;;23.28;51.79
53858;BME280;39763;51.188;6.690;2022-08-21T06:19:27;101357.06;;;23.29;51.94
53858;BME280;39763;51.188;6.690;2022-08-21T06:20:59;101350.59;;;23.32;51.71
53858;BME280;39763;51.188;6.690;2022-08-21T06:22:31;101351.22;;;23.35;51.55
53858;BME280;39763;51.188;6.690;2022-08-21T06:24:04;101351.84;;;23.39;51.45
53858;BME280;39763;51.188;6.690;2022-08-21T06:25:36;101355.88;;;23.44;51.06
53858;BME280;39763;51.188;6.690;2022-08-21T06:27:08;101360.88;;;23.49;51.04
53858;BME280;39763;51.188;6.690;2022-08-21T06:28:41;101357.44;;;23.47;50.41
53858;BME280;39763;51.188;6.690;2022-08-21T06:30:13;101353.81;;;23.48;50.72
53858;BME280;39763;51.188;6.690;2022-08-21T06:31:47;101358.00;;;23.52;50.95
53858;BME280;39763;51.188;6.690;2022-08-21T06:33:20;101362.38;;;23.53;50.19
53858;BME280;39763;51.188;6.690;2022-08-21T06:34:51;101364.84;;;23.56;50.40
53858;BME280;39763;51.188;6.690;2022-08-21T06:36:23;101361.06;;;23.59;50.32
53858;BME280;39763;51.188;6.690;2022-08-21T06:37:55;101367.03;;;23.62;50.20
53858;BME280;39763;51.188;6.690;2022-08-21T06:39:27;101366.78;;;23.65;49.90
53858;BME280;39763;51.188;6.690;2022-08-21T06:41:03;101358.63;;;23.67;50.32
53858;BME280;39763;51.188;6.690;2022-08-21T06:42:35;101361.94;;;23.70;49.95
53858;BME280;39763;51.188;6.690;2022-08-21T06:44:07;101363.28;;;23.87;49.87
53858;BME280;39763;51.188;6.690;2022-08-21T06:45:39;101361.09;;;24.14;48.79
53858;BME280;39763;51.188;6.690;2022-08-21T06:47:12;101367.44;;;24.36;48.06
53858;BME280;39763;51.188;6.690;2022-08-21T06:48:44;101363.78;;;24.37;48.04
53858;BME280;39763;51.188;6.690;2022-08-21T06:50:15;101370.66;;;24.30;48.14
53858;BME280;39763;51.188;6.690;2022-08-21T06:51:47;101363.81;;;24.25;48.13
53858;BME280;39763;51.188;6.690;2022-08-21T06:53:20;101360.59;;;24.20;48.19
53858;BME280;39763;51.188;6.690;2022-08-21T06:54:52;101353.91;;;24.15;48.01
53858;BME280;39763;51.188;6.690;2022-08-21T06:56:23;101358.41;;;24.14;48.43
53858;BME280;39763;51.188;6.690;2022-08-21T06:57:55;101361.31;;;24.22;47.96
53858;BME280;39763;51.188;6.690;2022-08-21T06:59:27;101360.16;;;24.27;47.96
53858;BME280;39763;51.188;6.690;2022-08-21T07:00:59;101352.81;;;24.29;48.00
53858;BME280;39763;51.188;6.690;2022-08-21T07:02:33;101361.63;;;24.31;47.63
53858;BME280;39763;51.188;6.690;2022-08-21T07:04:05;101363.19;;;24.33;47.52
53858;BME280;39763;51.188;6.690;2022-08-21T07:05:37;101361.84;;;24.39;47.29
53858;BME280;39763;51.188;6.690;2022-08-21T07:07:09;101357.31;;;24.39;47.44
53858;BME280;39763;51.188;6.690;2022-08-21T07:08:41;101361.47;;;24.43;46.92
53858;BME280;39763;51.188;6.690;2022-08-21T07:10:13;101353.06;;;24.48;46.93
53858;BME280;39763;51.188;6.690;2022-08-21T07:11:54;101362.53;;;24.52;47.26
53858;BME280;39763;51.188;6.690;2022-08-21T07:13:27;101352.16;;;24.58;47.19
53858;BME280;39763;51.188;6.690;2022-08-21T07:14:59;101357.88;;;24.65;46.73
53858;BME280;39763;51.188;6.690;2022-08-21T07:16:30;101352.00;;;24.71;46.80
53858;BME280;39763;51.188;6.690;2022-08-21T07:18:04;101350.38;;;24.80;46.40
53858;BME280;39763;51.188;6.690;2022-08-21T07:19:36;101351.59;;;24.87;46.29
53858;BME280;39763;51.188;6.690;2022-08-21T07:21:08;101354.63;;;24.93;45.66
53858;BME280;39763;51.188;6.690;2022-08-21T07:22:40;101348.28;;;24.94;45.88
53858;BME280;39763;51.188;6.690;2022-08-21T07:24:13;101347.91;;;24.99;45.77
53858;BME280;39763;51.188;6.690;2022-08-21T07:25:45;101353.28;;;24.99;45.24
53858;BME280;39763;51.188;6.690;2022-08-21T07:27:17;101354.50;;;24.95;45.07
53858;BME280;39763;51.188;6.690;2022-08-21T07:28:50;101357.53;;;25.02;45.50
53858;BME280;39763;51.188;6.690;2022-08-21T07:30:22;101355.91;;;25.10;45.82
53858;BME280;39763;51.188;6.690;2022-08-21T07:31:54;101353.31;;;25.20;46.06
53858;BME280;39763;51.188;6.690;2022-08-21T07:33:29;101351.53;;;25.30;45.41
53858;BME280;39763;51.188;6.690;2022-08-21T07:35:03;101364.47;;;25.36;45.84
53858;BME280;39763;51.188;6.690;2022-08-21T07:36:35;101355.59;;;25.45;45.68
53858;BME280;39763;51.188;6.690;2022-08-21T07:38:09;101352.78;;;25.68;45.54
53858;BME280;39763;51.188;6.690;2022-08-21T07:39:41;101358.19;;;25.98;44.99
53858;BME280;39763;51.188;6.690;2022-08-21T07:41:15;101361.16;;;26.25;44.32
53858;BME280;39763;51.188;6.690;2022-08-21T07:42:48;101359.16;;;26.67;43.28
53858;BME280;39763;51.188;6.690;2022-08-21T07:44:22;101347.25;;;26.80;42.96
53858;BME280;39763;51.188;6.690;2022-08-21T07:45:54;101357.75;;;26.83;42.95
53858;BME280;39763;51.188;6.690;2022-08-21T07:47:26;101356.34;;;26.69;42.43
53858;BME280;39763;51.188;6.690;2022-08-21T07:49:14;101368.91;;;26.49;43.06
53858;BME280;39763;51.188;6.690;2022-08-21T07:50:46;101367.72;;;26.32;42.40
53858;BME280;39763;51.188;6.690;2022-08-21T07:52:21;101367.22;;;26.18;42.75
53858;BME280;39763;51.188;6.690;2022-08-21T07:53:54;101360.25;;;26.15;43.12
53858;BME280;39763;51.188;6.690;2022-08-21T07:55:27;101352.91;;;26.17;43.65
53858;BME280;39763;51.188;6.690;2022-08-21T07:56:58;101352.16;;;26.15;43.07
53858;BME280;39763;51.188;6.690;2022-08-21T07:58:31;101351.44;;;26.13;43.44
53858;BME280;39763;51.188;6.690;2022-08-21T08:00:05;101352.44;;;26.12;43.23
53858;BME280;39763;51.188;6.690;2022-08-21T08:01:42;101344.34;;;26.03;43.24
53858;BME280;39763;51.188;6.690;2022-08-21T08:03:14;101347.00;;;25.93;43.53
53858;BME280;39763;51.188;6.690;2022-08-21T08:05:02;101341.47;;;25.94;43.05
53858;BME280;39763;51.188;6.690;2022-08-21T08:06:35;101334.97;;;25.97;43.40